Time;durP1;ratioP1;P1;durP2;ratioP2;P2;SDS_P1;SDS_P2;PMS_P1;PMS_P2;Temp;Humidity;BMP_temperature;BMP_pressure;BME280_temperature;BME280_humidity;BME280_pressure;Samples;Min_cycle;Max_cycle;Signal;HPM_P1;HPM_P2
2022/01/28 00:01:07;;;;;;;9.87;8.73;;;2.90;97.30;;;1.22;93.63;98748.25;5057691;28;20764;-74
2022/01/28 00:03:38;;;;;;;11.60;8.90;;;2.90;95.40;;;1.35;93.67;98763.94;5058410;28;20434;-75
2022/01/28 00:06:07;;;;;;;10.63;9.53;;;2.90;95.10;;;1.37;93.20;98765.50;5058433;28;20447;-74
2022/01/28 00:08:34;;;;;;;8.93;7.87;;;2.90;95.00;;;1.37;93.34;98768.16;5056950;28;20437;-76
2022/01/28 00:11:02;;;;;;;10.50;8.87;;;2.90;94.70;;;1.40;93.21;98759.91;5075295;28;20539;-74
2022/01/28 00:13:35;;;;;;;10.90;8.90;;;3.00;94.60;;;1.13;93.15;98729.44;5078621;28;20442;-75
2022/01/28 00:16:45;;;;;;;10.00;8.83;;;3.00;94.90;;;1.40;92.82;98775.06;5078585;28;20418;-75
2022/01/28 00:38:29;;;;;;;7.90;6.77;;;2.90;93.20;;;1.33;91.69;98782.75;5065604;28;20442;-77
2022/01/28 00:40:56;;;;;;;9.17;6.97;;;2.90;92.70;;;1.33;91.99;98780.09;5061638;28;20422;-75
2022/01/28 00:43:25;;;;;;;9.37;7.73;;;2.90;92.80;;;1.36;91.83;98787.78;5055721;28;20438;-74
2022/01/28 00:45:52;;;;;;;7.63;6.87;;;2.90;92.90;;;1.38;91.74;98780.50;5056566;28;20512;-75
2022/01/28 00:48:19;;;;;;;8.00;6.83;;;2.90;92.50;;;1.48;91.55;98795.66;5054915;28;20533;-75
2022/01/28 00:50:46;;;;;;;7.30;6.60;;;3.00;92.90;;;1.37;91.31;98800.13;5055802;28;20497;-75
2022/01/28 00:53:13;;;;;;;8.73;6.53;;;3.00;92.20;;;1.37;91.73;98800.13;5038430;28;20442;-75
2022/01/28 00:55:40;;;;;;;7.37;6.30;;;2.90;92.50;;;1.46;90.89;98813.59;5038427;28;20783;-75
2022/01/28 00:58:07;;;;;;;7.83;5.87;;;3.00;92.40;;;1.39;91.42;98803.50;5055975;28;20521;-74
2022/01/28 01:00:36;;;;;;;8.33;6.63;;;3.00;92.40;;;1.38;90.96;98796.47;5055795;28;20465;-74
2022/01/28 01:03:03;;;;;;;6.83;6.13;;;3.00;92.20;;;0.97;91.25;98739.78;5055780;28;20470;-74
2022/01/28 01:05:33;;;;;;;8.50;7.60;;;2.90;92.40;;;1.36;91.50;98797.59;5055835;28;20436;-74
2022/01/28 01:08:01;;;;;;;9.10;8.17;;;2.90;92.70;;;1.33;91.60;98803.19;5037863;28;20886;-77
2022/01/28 01:10:28;;;;;;;8.70;7.27;;;2.90;92.60;;;1.45;91.25;98812.75;5037752;28;20815;-77
2022/01/28 01:12:55;;;;;;;8.17;7.30;;;3.00;92.50;;;1.39;91.75;98814.13;5057320;28;20440;-76
2022/01/28 01:15:27;;;;;;;9.90;7.97;;;3.00;93.00;;;1.22;93.07;98820.13;5037659;28;20831;-76
2022/01/28 01:18:00;;;;;;;9.70;8.70;;;2.80;94.40;;;1.16;93.85;98815.34;5055792;28;20439;-77
2022/01/28 01:20:53;;;;;;;11.10;8.97;;;2.70;95.80;;;1.08;94.61;98821.34;5038461;28;20442;-76
2022/01/28 01:23:25;;;;;;;11.10;9.77;;;2.70;97.10;;;1.13;94.79;98833.25;5055668;28;20443;-75
2022/01/28 01:25:56;;;;;;;11.60;9.73;;;2.70;98.20;;;1.07;95.00;98820.50;5055469;28;20442;-73
2022/01/28 01:28:29;;;;;;;11.30;9.77;;;2.70;99.20;;;1.26;93.76;98845.50;5055250;28;20438;-73
2022/01/28 01:30:57;;;;;;;12.50;9.40;;;2.80;96.80;;;1.30;94.29;98840.75;5037342;28;20461;-74
2022/01/28 01:33:27;;;;;;;11.70;9.67;;;2.80;96.90;;;1.15;94.58;98819.00;5037815;28;20438;-75
2022/01/28 01:35:54;;;;;;;10.20;8.80;;;2.80;97.40;;;1.29;94.09;98844.38;5055029;28;20474;-75
2022/01/28 01:38:25;;;;;;;9.03;7.60;;;2.80;96.00;;;1.42;93.75;98840.50;5037947;28;20927;-77
2022/01/28 01:40:55;;;;;;;10.70;9.33;;;2.90;95.80;;;1.37;93.77;98832.09;5054165;28;20472;-77
2022/01/28 01:43:36;;;;;;;11.37;8.90;;;2.90;95.70;;;1.36;93.60;98851.69;5055382;28;20431;-77
2022/01/28 01:46:14;;;;;;;10.70;9.27;;;2.90;95.30;;;1.40;93.67;98842.44;5055547;28;20541;-77
2022/01/28 01:54:23;;;;;;;11.53;7.90;;;3.00;93.70;;;1.46;92.58;98848.22;5046572;28;20446;-75
2022/01/28 01:56:50;;;;;;;9.70;8.53;;;3.00;93.80;;;1.44;92.21;98839.50;5037237;28;20492;-75
2022/01/28 01:59:17;;;;;;;11.33;8.60;;;3.00;93.50;;;1.46;92.39;98853.56;5055064;28;20523;-77
2022/01/28 02:01:44;;;;;;;12.40;9.83;;;3.00;93.40;;;1.46;92.31;98862.38;5037044;28;20834;-77
2022/01/28 02:04:13;;;;;;;12.87;9.03;;;3.00;93.30;;;1.44;91.58;98848.34;5037235;28;20500;-78
2022/01/28 02:06:41;;;;;;;10.83;9.70;;;3.00;93.00;;;1.48;91.58;98859.59;5058419;28;20434;-79
2022/01/28 02:09:09;;;;;;;9.20;8.20;;;3.10;92.40;;;1.54;91.21;98869.69;5061128;28;20441;-78
2022/01/28 02:11:36;;;;;;;11.10;9.27;;;3.10;92.30;;;1.62;91.01;98871.66;5056255;28;20502;-78
2022/01/28 02:14:03;;;;;;;10.80;9.10;;;3.10;92.10;;;1.60;90.61;98877.16;5036718;28;20861;-78
2022/01/28 02:16:30;;;;;;;10.87;7.90;;;3.10;91.70;;;1.65;90.51;98882.03;5054858;28;20929;-76
2022/01/28 02:18:57;;;;;;;10.60;8.77;;;3.20;91.70;;;1.60;90.13;98881.63;5054456;28;20918;-76
2022/01/28 02:21:25;;;;;;;10.30;8.73;;;3.20;91.40;;;1.65;89.79;98888.22;5054251;28;20522;-75
2022/01/28 02:23:58;;;;;;;13.10;8.77;;;3.20;91.30;;;1.68;89.79;98887.13;5037242;28;20462;-76
2022/01/28 02:26:25;;;;;;;8.70;7.80;;;3.20;91.00;;;1.68;89.73;98890.63;5054389;28;20442;-77
2022/01/28 02:28:55;;;;;;;11.33;9.63;;;3.20;90.60;;;1.63;89.78;98890.19;5054093;28;20462;-75
2022/01/28 02:31:26;;;;;;;13.13;8.90;;;3.20;91.10;;;1.67;89.45;98904.91;5037591;28;20466;-76
2022/01/28 02:33:56;;;;;;;10.50;9.13;;;3.20;90.80;;;1.64;89.66;98896.34;5055577;28;20438;-77
2022/01/28 02:36:26;;;;;;;11.13;8.43;;;3.20;90.90;;;1.50;89.27;98878.94;5054445;28;20453;-77
2022/01/28 02:38:53;;;;;;;14.13;9.87;;;3.20;90.70;;;1.11;89.39;98815.75;5036670;28;20560;-79
2022/01/28 02:41:22;;;;;;;11.87;10.00;;;3.20;90.70;;;1.55;89.27;98892.69;5037010;28;20567;-79
2022/01/28 02:44:03;;;;;;;10.20;8.53;;;3.10;90.50;;;1.52;89.74;98893.81;5055102;28;20453;-78
2022/01/28 02:46:32;;;;;;;13.23;8.67;;;3.10;90.80;;;1.48;89.47;98881.72;5056089;28;20434;-78
2022/01/28 02:49:04;;;;;;;11.87;8.77;;;3.10;90.90;;;1.46;89.53;98893.50;5055429;28;20442;-78
2022/01/28 02:51:33;;;;;;;8.30;6.87;;;3.00;90.70;;;1.49;88.93;98887.91;5037780;28;20458;-78
2022/01/28 02:54:11;;;;;;;12.40;8.57;;;3.10;90.40;;;1.52;89.13;98899.13;5056216;28;20438;-79
2022/01/28 02:56:46;;;;;;;10.53;9.10;;;3.10;90.50;;;1.53;88.77;98889.31;5056776;28;20444;-78
2022/01/28 02:59:13;;;;;;;11.77;7.70;;;3.10;90.00;;;1.49;88.46;98887.91;5039770;28;20438;-79
2022/01/28 03:01:40;;;;;;;9.97;8.40;;;3.10;90.00;;;1.48;88.66;98881.72;5056028;28;20450;-78
2022/01/28 03:04:08;;;;;;;8.13;6.90;;;3.10;90.00;;;1.50;88.43;98890.41;5037187;28;21000;-79
2022/01/28 03:06:37;;;;;;;14.00;8.63;;;3.10;89.10;;;1.54;88.21;98886.53;5054589;28;20442;-77
2022/01/28 03:09:13;;;;;;;9.50;7.90;;;3.10;89.30;;;1.52;88.32;98885.81;5054091;28;20507;-76
2022/01/28 03:11:46;;;;;;;9.40;7.40;;;3.10;89.40;;;1.51;88.55;98892.09;5037206;28;20458;-77
2022/01/28 03:14:31;;;;;;;9.30;7.17;;;3.10;89.50;;;1.49;88.19;98896.72;5054553;28;20433;-77
2022/01/28 03:17:07;;;;;;;8.80;7.87;;;3.10;89.40;;;1.45;88.37;98889.16;5036588;28;20434;-78
2022/01/28 03:19:45;;;;;;;11.03;8.33;;;3.00;89.60;;;1.51;88.52;98897.44;5054218;28;20851;-79
2022/01/28 03:22:13;;;;;;;10.77;7.83;;;3.00;90.00;;;1.53;88.34;98903.50;5037175;28;20748;-78
2022/01/28 03:24:41;;;;;;;12.30;8.37;;;3.00;89.80;;;1.42;88.04;98891.09;5036736;28;20495;-77
2022/01/28 03:27:17;;;;;;;8.97;7.80;;;3.00;89.30;;;1.57;88.37;98897.88;5037167;28;20469;-77
2022/01/28 03:29:44;;;;;;;10.23;7.40;;;3.10;89.80;;;1.54;87.32;98896.31;5047412;28;20437;-76
2022/01/28 03:32:11;;;;;;;7.80;6.90;;;3.10;88.30;;;1.55;87.66;98901.53;5059326;28;20494;-77
2022/01/28 03:34:38;;;;;;;8.77;6.73;;;3.10;88.50;;;1.41;87.96;98892.06;5053676;28;20478;-78
2022/01/28 03:37:07;;;;;;;7.87;5.87;;;3.00;88.70;;;1.50;87.86;98889.59;5038385;28;20469;-77
2022/01/28 03:39:36;;;;;;;9.43;7.57;;;3.00;88.80;;;1.46;87.33;98904.16;5036841;28;20483;-77
2022/01/28 03:42:04;;;;;;;9.43;7.60;;;3.00;87.90;;;1.46;87.73;98917.47;5054017;28;20454;-76
2022/01/28 03:44:32;;;;;;;8.77;7.30;;;3.00;88.10;;;1.50;87.10;98929.53;5053660;28;20435;-77
2022/01/28 03:46:59;;;;;;;7.70;6.90;;;3.00;88.30;;;1.55;87.73;98929.97;5053858;28;20525;-77
2022/01/28 03:49:25;;;;;;;9.00;7.70;;;3.00;89.10;;;1.49;87.99;98919.88;5053716;28;20505;-75
2022/01/28 03:51:52;;;;;;;14.83;8.80;;;3.00;89.10;;;1.45;88.36;98940.59;5036089;28;20557;-75
2022/01/28 03:54:19;;;;;;;12.87;8.63;;;3.00;89.50;;;1.34;88.99;98938.00;5036270;28;20444;-76
2022/01/28 03:56:48;;;;;;;10.30;8.77;;;2.90;90.50;;;1.24;89.49;98937.97;5038152;28;20473;-77
2022/01/28 03:59:15;;;;;;;9.70;8.70;;;2.80;90.80;;;1.21;89.45;98944.41;5056144;28;20502;-76
2022/01/28 04:01:45;;;;;;;12.17;9.10;;;2.80;90.70;;;1.19;89.55;98966.81;5073920;28;20454;-77
2022/01/28 04:12:43;;;;;;;12.97;9.07;;;2.80;90.30;;;1.29;88.82;98983.72;5035844;28;20489;-79
2022/01/28 04:15:22;;;;;;;12.60;10.13;;;2.80;90.30;;;1.29;88.93;98983.72;5053660;28;20909;-78
2022/01/28 04:17:51;;;;;;;10.50;8.67;;;2.80;90.30;;;1.32;88.76;98988.75;5053524;28;20473;-76
2022/01/28 04:20:18;;;;;;;15.83;9.87;;;2.80;90.10;;;1.26;89.28;98981.28;5057550;28;20541;-78
2022/01/28 04:22:46;;;;;;;13.00;9.70;;;2.80;90.50;;;1.30;89.34;98987.19;5057272;28;20525;-78
2022/01/28 04:25:13;;;;;;;12.10;8.60;;;2.80;90.40;;;1.18;89.02;98957.16;5057369;28;20576;-78
2022/01/28 04:27:41;;;;;;;12.90;9.20;;;2.90;90.60;;;1.35;88.94;98991.16;5039962;28;20809;-77
2022/01/28 04:30:09;;;;;;;12.40;8.23;;;2.90;90.50;;;1.37;88.81;98997.19;5056809;28;20466;-77
2022/01/28 04:32:37;;;;;;;13.20;10.00;;;2.90;90.40;;;1.30;89.14;98993.38;5038635;28;20458;-78
2022/01/28 04:35:06;;;;;;;14.10;8.70;;;2.90;90.30;;;1.37;88.63;99002.50;5040273;28;20787;-77
2022/01/28 04:37:41;;;;;;;10.87;8.20;;;2.90;90.20;;;1.33;89.04;99003.75;5056683;28;20423;-77
2022/01/28 04:40:13;;;;;;;14.93;9.70;;;2.90;90.30;;;1.10;88.96;98961.31;5056863;28;20429;-77
2022/01/28 04:45:30;;;;;;;10.60;9.00;;;2.90;90.20;;;1.38;89.24;99017.53;5054416;28;20449;-78
2022/01/28 04:48:07;;;;;;;12.37;9.10;;;2.90;90.60;;;1.34;88.88;99026.75;5039710;28;20457;-77
2022/01/28 04:50:43;;;;;;;11.10;9.10;;;2.90;89.80;;;1.42;88.63;99026.91;5039369;28;20897;-76
2022/01/28 04:53:33;;;;;;;11.00;8.97;;;2.90;90.30;;;1.46;88.23;99024.03;5056128;28;20910;-76
2022/01/28 04:56:11;;;;;;;10.30;8.50;;;3.00;90.10;;;1.30;89.29;99033.31;5055616;28;20525;-77
2022/01/28 04:58:55;;;;;;;13.00;9.10;;;2.90;90.20;;;1.27;89.16;99045.06;5055954;28;20431;-75
2022/01/28 05:01:48;;;;;;;10.20;8.03;;;2.80;90.50;;;1.24;89.64;99050.66;5055865;28;20537;-78
2022/01/28 05:04:38;;;;;;;13.97;8.50;;;2.80;90.60;;;1.30;89.63;99059.94;5055932;28;20525;-76
2022/01/28 05:26:31;;;;;;;9.80;7.00;;;3.00;90.00;;;1.36;88.12;99058.56;5053146;28;20446;-78
2022/01/28 05:28:58;;;;;;;10.87;6.93;;;2.90;89.00;;;1.47;88.36;99058.50;5055727;28;20484;-77
2022/01/28 05:31:27;;;;;;;12.10;6.00;;;2.90;90.10;;;1.40;88.06;99060.84;5056075;28;20504;-76
2022/01/28 05:33:54;;;;;;;10.77;6.97;;;3.00;89.30;;;1.38;88.66;99068.13;5055094;28;20527;-75
2022/01/28 05:36:22;;;;;;;11.00;6.80;;;2.90;90.00;;;1.37;88.88;99074.41;5055759;28;20478;-76
2022/01/28 05:38:49;;;;;;;9.20;7.20;;;2.90;90.20;;;1.31;88.99;99082.94;5056065;28;20448;-75
2022/01/28 05:41:16;;;;;;;13.03;7.17;;;2.90;90.40;;;1.47;88.82;99082.47;5037586;28;20446;-75
2022/01/28 05:43:43;;;;;;;10.00;6.60;;;3.00;90.60;;;1.38;87.99;99078.78;5055700;28;20430;-74
2022/01/28 05:46:10;;;;;;;8.37;5.77;;;3.00;89.90;;;1.56;87.34;99094.16;5057462;28;20504;-76
2022/01/28 05:48:39;;;;;;;8.97;6.70;;;3.10;88.70;;;1.34;87.61;99080.00;5056180;28;20447;-77
2022/01/28 05:51:06;;;;;;;10.53;6.20;;;3.00;88.70;;;1.55;87.68;99101.31;5058120;28;20435;-74
2022/01/28 05:53:33;;;;;;;10.03;7.00;;;3.10;88.60;;;1.45;87.74;99111.06;5039294;28;20499;-76
2022/01/28 05:56:00;;;;;;;7.57;6.80;;;3.00;88.70;;;1.42;87.54;99090.00;5054493;28;20869;-77
2022/01/28 05:58:26;;;;;;;7.20;6.30;;;3.00;88.00;;;1.45;88.26;99118.22;5056361;28;20546;-77
2022/01/28 06:00:54;;;;;;;8.63;6.70;;;3.00;89.00;;;1.26;88.39;99087.78;5056795;28;20434;-81
2022/01/28 06:03:21;;;;;;;8.00;6.13;;;2.90;89.40;;;1.35;87.89;99100.34;5038773;28;20442;-77
2022/01/28 06:05:49;;;;;;;11.63;7.43;;;2.90;88.90;;;0.84;87.58;99017.59;5055828;28;20438;-78
2022/01/28 06:08:16;;;;;;;9.37;5.93;;;2.90;88.80;;;1.36;88.09;99102.03;5037411;28;20549;-76
2022/01/28 06:10:43;;;;;;;9.23;7.47;;;2.90;89.60;;;1.32;87.89;99103.28;5055257;28;20542;-76
2022/01/28 06:13:12;;;;;;;10.10;7.80;;;2.90;89.00;;;1.22;87.66;99105.00;5038957;28;20533;-75
2022/01/28 06:15:41;;;;;;;14.53;7.50;;;2.80;88.50;;;1.33;87.86;99115.59;5041119;28;20442;-75
2022/01/28 06:18:09;;;;;;;8.23;6.43;;;2.80;89.30;;;1.35;87.91;99113.66;5055965;28;20437;-80
2022/01/28 06:20:36;;;;;;;9.27;6.20;;;2.90;89.30;;;1.57;88.13;99111.81;5042367;28;20448;-85
2022/01/28 06:23:05;;;;;;;12.10;8.43;;;3.00;90.10;;;1.65;87.33;99122.69;5059472;28;20900;-84
2022/01/28 06:25:33;;;;;;;11.63;7.07;;;3.10;88.30;;;1.62;87.07;99122.94;5060825;28;20449;-84
2022/01/28 06:28:00;;;;;;;10.67;6.67;;;3.20;87.80;;;1.72;86.93;99128.34;5043632;28;20449;-84
2022/01/28 06:30:27;;;;;;;11.80;7.23;;;3.20;87.60;;;1.67;86.69;99131.38;5068222;28;20466;-85
2022/01/28 06:32:54;;;;;;;9.83;7.00;;;3.20;86.60;;;1.60;86.13;99119.56;5057674;28;20466;-83
2022/01/28 06:35:21;;;;;;;13.53;9.27;;;3.20;86.00;;;1.58;86.44;99131.31;5071371;28;20454;-83
2022/01/28 06:37:48;;;;;;;9.10;6.80;;;3.10;86.90;;;1.60;86.63;99135.56;5061420;28;20780;-84
2022/01/28 06:40:18;;;;;;;13.80;8.60;;;3.20;86.40;;;1.55;87.03;99130.63;5043521;28;20442;-83
2022/01/28 06:42:45;;;;;;;9.53;6.70;;;3.10;87.40;;;1.46;86.18;99136.72;5057509;28;20937;-75
2022/01/28 06:45:12;;;;;;;10.40;5.30;;;3.10;85.90;;;1.30;86.28;99155.81;5055773;28;20513;-74
2022/01/28 06:47:40;;;;;;;10.80;7.00;;;2.90;85.80;;;1.24;86.92;99146.50;5055301;28;20438;-73
2022/01/28 06:50:10;;;;;;;10.47;7.20;;;2.80;86.60;;;1.29;88.41;99148.81;5055479;28;20430;-76
2022/01/28 06:52:39;;;;;;;10.57;7.60;;;2.80;90.10;;;1.26;87.61;99151.69;5038135;28;20468;-71
2022/01/28 06:55:07;;;;;;;11.50;7.57;;;2.80;89.00;;;1.31;87.23;99154.84;5056179;28;20464;-75
2022/01/28 06:57:36;;;;;;;15.53;7.10;;;2.90;87.90;;;1.25;88.32;99158.84;5058124;28;20439;-77
2022/01/28 07:00:07;;;;;;;14.80;7.40;;;2.80;90.10;;;1.25;88.09;99163.31;5068117;28;20448;-75
2022/01/28 07:02:35;;;;;;;9.10;6.63;;;2.80;89.40;;;1.20;88.59;99160.22;5075673;28;20443;-75
2022/01/28 07:05:02;;;;;;;11.13;5.77;;;2.70;90.30;;;1.03;88.18;99170.44;5059298;28;20450;-77
2022/01/28 07:07:29;;;;;;;7.63;5.73;;;2.70;89.00;;;0.95;88.70;99152.44;5056231;28;20450;-75
2022/01/28 07:09:56;;;;;;;9.33;6.80;;;2.60;90.10;;;1.15;88.91;99168.56;5058328;28;20460;-76
2022/01/28 07:12:23;;;;;;;10.50;5.97;;;2.70;90.10;;;1.01;88.36;99167.06;5068629;28;20461;-74
2022/01/28 07:14:53;;;;;;;12.90;6.00;;;2.60;89.40;;;1.21;88.52;99183.19;5075474;28;20445;-77
2022/01/28 07:17:20;;;;;;;8.88;4.93;;;2.70;90.40;;;1.23;87.57;99186.56;5063456;28;20375;-80
2022/01/28 07:19:47;;;;;;;9.93;4.93;;;2.80;88.10;;;1.06;87.87;99175.50;5070779;28;20578;-78
2022/01/28 07:22:14;;;;;;;7.07;5.90;;;2.70;88.70;;;1.30;89.94;99182.44;5056407;28;20444;-79
2022/01/28 07:24:42;;;;;;;8.00;5.43;;;2.70;92.30;;;1.12;89.45;99174.97;5074318;28;20528;-79
2022/01/28 07:27:09;;;;;;;8.17;5.10;;;2.70;90.90;;;0.88;90.19;99183.16;5074383;28;20532;-77
2022/01/28 07:29:37;;;;;;;10.23;6.60;;;2.50;91.30;;;0.90;91.59;99183.03;5074668;28;20925;-82
2022/01/28 07:32:07;;;;;;;17.13;7.33;;;2.50;93.10;;;0.72;91.52;99177.38;5058406;28;20519;-84
2022/01/28 07:34:34;;;;;;;10.20;7.30;;;2.30;92.90;;;0.67;92.10;99183.06;5059226;28;20569;-83
2022/01/28 07:37:01;;;;;;;9.10;6.93;;;2.30;93.70;;;0.72;92.07;99194.22;5076190;28;20443;-81
2022/01/28 07:39:30;;;;;;;13.97;8.17;;;2.30;93.80;;;0.81;91.45;99196.13;5058904;28;20730;-83
2022/01/28 07:41:57;;;;;;;9.90;7.73;;;2.30;93.40;;;0.84;90.80;99193.22;5077494;28;20473;-84
2022/01/28 07:44:25;;;;;;;7.53;6.27;;;2.40;92.20;;;0.89;90.27;99215.94;5080376;28;20464;-81
2022/01/28 07:46:52;;;;;;;13.43;7.87;;;2.40;91.40;;;0.88;89.87;99185.00;5086772;28;20425;-82
2022/01/28 07:49:20;;;;;;;7.20;6.20;;;2.50;91.20;;;0.75;88.86;99159.38;5076275;28;20808;-80
2022/01/28 07:51:48;;;;;;;8.90;7.10;;;2.60;90.30;;;1.18;88.53;99210.06;5095709;28;20443;-82
2022/01/28 07:54:16;;;;;;;8.97;6.87;;;2.70;89.90;;;0.68;87.93;99131.56;5077779;28;20434;-82
2022/01/28 07:56:47;;;;;;;6.50;5.70;;;2.70;89.20;;;1.14;87.94;99214.81;5076542;28;20460;-82
2022/01/28 07:59:14;;;;;;;9.50;5.30;;;2.70;88.20;;;1.04;88.08;99212.06;5091001;28;20462;-81
2022/01/28 08:01:41;;;;;;;5.97;3.77;;;2.70;89.10;;;1.07;88.07;99213.63;5065433;28;20610;-82
2022/01/28 08:04:08;;;;;;;10.30;5.40;;;2.70;88.90;;;1.09;87.67;99207.19;5063764;28;20445;-81
2022/01/28 08:06:38;;;;;;;10.93;5.57;;;2.70;88.70;;;1.22;87.31;99225.69;5080185;28;20978;-83
2022/01/28 08:09:05;;;;;;;9.33;5.07;;;2.80;88.30;;;0.48;86.88;99082.66;5082958;28;20779;-83
2022/01/28 08:11:34;;;;;;;8.23;5.60;;;2.90;87.60;;;1.34;87.03;99237.13;5079753;28;20436;-81
2022/01/28 08:14:02;;;;;;;9.17;5.20;;;2.90;87.20;;;1.36;86.81;99229.88;5064307;28;20469;-83
2022/01/28 08:16:29;;;;;;;5.60;4.37;;;2.90;86.50;;;1.34;86.53;99234.47;5062584;28;20536;-82
2022/01/28 08:18:56;;;;;;;6.03;3.60;;;2.90;86.10;;;1.12;86.42;99212.25;5080981;28;20441;-83
2022/01/28 08:21:23;;;;;;;6.23;4.00;;;2.90;85.70;;;1.12;86.22;99232.72;5062134;28;20441;-82
2022/01/28 08:23:52;;;;;;;8.33;3.43;;;2.80;85.40;;;1.19;85.84;99243.72;5078006;28;20870;-82
2022/01/28 08:26:21;;;;;;;4.07;2.77;;;2.80;84.70;;;1.19;85.32;99239.22;5062646;28;20434;-81
2022/01/28 08:28:48;;;;;;;4.27;3.20;;;2.80;83.70;;;1.29;84.77;99244.66;5079337;28;20475;-75
2022/01/28 08:31:16;;;;;;;5.00;3.07;;;2.80;83.70;;;1.31;84.77;99257.84;5076611;28;20811;-75
2022/01/28 08:33:43;;;;;;;5.53;3.43;;;2.80;83.80;;;1.39;84.53;99250.91;5076738;28;20500;-76
2022/01/28 08:36:11;;;;;;;5.83;3.27;;;2.90;83.90;;;1.60;84.69;99247.47;5077469;28;20878;-75
2022/01/28 08:38:44;;;;;;;5.43;4.40;;;3.10;83.70;;;1.78;83.85;99255.72;5074265;28;20526;-75
2022/01/28 08:41:13;;;;;;;5.47;4.03;;;3.20;83.00;;;1.80;82.92;99259.09;5059965;28;20437;-74
2022/01/28 08:43:41;;;;;;;5.03;3.20;;;3.40;81.80;;;1.62;83.25;99264.16;5059673;28;20460;-75
2022/01/28 08:46:08;;;;;;;5.93;3.60;;;3.20;81.90;;;1.60;83.85;99267.91;5077199;28;20517;-75
2022/01/28 08:48:35;;;;;;;4.90;3.70;;;3.10;82.60;;;1.77;83.06;99285.19;5058894;28;20971;-74
2022/01/28 08:51:03;;;;;;;4.70;2.60;;;3.30;82.00;;;1.82;82.81;99289.16;5077115;28;20436;-75
2022/01/28 08:53:30;;;;;;;5.43;3.33;;;3.30;81.70;;;1.91;82.26;99282.22;5059963;28;20469;-75
2022/01/28 08:55:57;;;;;;;5.93;3.60;;;3.40;81.40;;;2.04;82.18;99291.81;5078038;28;20445;-75
2022/01/28 08:58:25;;;;;;;7.40;3.60;;;3.50;81.40;;;2.03;81.98;99295.47;5077891;28;20437;-75
2022/01/28 09:00:53;;;;;;;3.83;3.33;;;3.50;80.90;;;2.01;81.58;99300.06;5076940;28;20536;-76
2022/01/28 09:03:21;;;;;;;4.97;3.17;;;3.50;80.90;;;1.98;81.46;99299.38;5076217;28;20806;-76
2022/01/28 09:05:49;;;;;;;6.20;3.17;;;3.60;80.50;;;2.04;81.50;99310.47;5058768;28;20495;-76
2022/01/28 09:08:16;;;;;;;5.17;3.70;;;3.60;80.40;;;2.01;80.72;99308.06;5077127;28;20786;-77
2022/01/28 09:10:46;;;;;;;3.93;2.93;;;3.60;79.50;;;2.07;79.71;99310.25;5077102;28;20449;-75
2022/01/28 09:13:24;;;;;;;6.20;2.90;;;3.60;79.10;;;2.04;80.07;99303.34;5077312;28;20455;-76
2022/01/28 09:15:55;;;;;;;6.00;2.90;;;3.60;79.00;;;2.09;79.29;99309.13;5053675;28;20452;-76
2022/01/28 09:18:25;;;;;;;9.03;2.70;;;3.60;78.50;;;2.15;78.48;99310.44;5077752;28;20838;-75
2022/01/28 09:20:53;;;;;;;4.13;2.30;;;3.70;78.20;;;2.18;79.01;99306.66;5074724;28;20464;-73
2022/01/28 09:23:20;;;;;;;2.87;2.43;;;3.70;78.10;;;2.17;78.80;99308.47;5059480;28;20477;-75
2022/01/28 09:25:47;;;;;;;5.00;1.90;;;3.70;78.20;;;2.05;78.34;99288.19;5076951;28;20434;-75
2022/01/28 09:28:15;;;;;;;8.27;2.90;;;3.70;78.00;;;2.16;78.52;99316.63;5076781;28;20476;-78
2022/01/28 09:30:42;;;;;;;6.53;3.07;;;3.70;77.90;;;2.12;79.04;99305.34;5077407;28;20464;-77
2022/01/28 09:33:11;;;;;;;6.17;3.20;;;3.60;78.00;;;2.21;79.08;99309.94;5059012;28;20490;-76
2022/01/28 09:35:41;;;;;;;5.20;2.60;;;3.70;78.20;;;2.16;78.49;99311.28;5076836;28;20510;-77
2022/01/28 09:38:09;;;;;;;3.00;2.03;;;3.70;78.00;;;2.23;78.86;99320.44;5076901;28;20572;-76
2022/01/28 09:40:38;;;;;;;8.60;2.80;;;3.80;78.00;;;2.32;78.93;99324.16;5077396;28;20465;-77
2022/01/28 09:43:07;;;;;;;5.60;3.43;;;3.80;78.30;;;2.34;78.57;99319.53;5076654;28;20444;-76
2022/01/28 09:45:35;;;;;;;5.17;3.00;;;3.90;78.20;;;2.32;78.63;99332.16;5077137;28;20491;-76
2022/01/28 09:48:02;;;;;;;6.80;3.37;;;3.80;77.90;;;2.08;78.54;99282.59;5058294;28;20837;-78
2022/01/28 09:50:33;;;;;;;6.67;3.40;;;3.90;78.30;;;2.19;78.83;99282.50;5075687;28;20488;-78
2022/01/28 09:53:02;;;;;;;9.18;4.40;;;4.00;78.20;;;2.24;78.36;99276.78;5076742;28;20445;-77
2022/01/28 09:55:29;;;;;;;8.70;4.43;;;4.10;78.40;;;2.73;78.25;99342.91;5081372;28;20507;-79
2022/01/28 09:58:00;;;;;;;7.73;3.77;;;4.20;78.10;;;2.77;77.86;99342.53;5078176;28;20710;-78
2022/01/28 10:00:28;;;;;;;7.53;4.30;;;4.20;78.00;;;2.73;77.80;99343.78;5074866;28;20446;-76
2022/01/28 10:02:59;;;;;;;12.90;3.27;;;4.30;77.90;;;2.72;77.71;99342.09;5057120;28;20190;-76
2022/01/28 10:05:30;;;;;;;10.03;2.93;;;4.20;77.30;;;2.73;78.13;99333.09;5075800;28;20924;-75
2022/01/28 10:08:08;;;;;;;4.80;2.80;;;4.20;77.60;;;2.72;78.00;99333.22;5075285;28;20494;-76
2022/01/28 10:11:00;;;;;;;5.73;2.90;;;4.30;77.40;;;2.75;77.48;99328.47;5057216;28;20444;-75
2022/01/28 10:13:34;;;;;;;5.03;3.00;;;4.30;77.10;;;2.04;76.19;99201.16;5075338;28;21001;-76
2022/01/28 10:16:10;;;;;;;8.03;3.10;;;4.40;76.90;;;2.89;76.04;99335.31;5056082;28;20844;-76
2022/01/28 10:18:46;;;;;;;6.33;2.80;;;4.40;76.40;;;3.01;75.46;99344.06;5075608;28;20448;-76
2022/01/28 10:21:31;;;;;;;6.27;2.80;;;4.50;76.10;;;3.02;75.73;99363.59;5075120;28;20490;-77
2022/01/28 10:24:11;;;;;;;3.27;1.87;;;4.50;75.90;;;3.01;75.47;99344.06;5058855;28;20952;-78
2022/01/28 10:26:42;;;;;;;4.40;2.50;;;4.50;75.80;;;2.92;74.82;99350.19;5057415;28;20469;-76
2022/01/28 10:29:13;;;;;;;5.90;2.30;;;4.50;75.50;;;2.06;74.89;99221.41;5075107;28;20442;-76
2022/01/28 10:31:59;;;;;;;4.63;2.00;;;4.40;75.20;;;2.79;75.53;99351.25;5057223;28;20938;-77
2022/01/28 10:34:30;;;;;;;6.60;2.37;;;4.30;75.20;;;2.83;75.40;99358.03;5057188;28;20845;-76
2022/01/28 10:37:14;;;;;;;4.90;2.20;;;4.30;75.30;;;2.98;75.46;99360.34;5074297;28;20868;-76
2022/01/28 10:39:45;;;;;;;7.00;2.10;;;4.40;75.30;;;3.03;74.84;99350.09;5056696;28;20476;-76
2022/01/28 10:42:15;;;;;;;4.80;2.40;;;4.50;75.00;;;2.90;73.89;99368.16;5074250;28;20783;-75
2022/01/28 10:44:55;;;;;;;5.60;2.27;;;4.40;74.20;;;2.90;73.94;99369.03;5075295;28;20469;-79
2022/01/28 10:47:37;;;;;;;2.33;1.80;;;4.40;74.30;;;3.01;73.76;99368.09;5074996;28;20433;-78
2022/01/28 10:50:25;;;;;;;5.33;2.30;;;4.50;74.20;;;2.88;72.99;99373.66;5074534;28;20437;-77
2022/01/28 10:53:07;;;;;;;7.53;2.33;;;4.40;73.50;;;2.87;73.21;99379.94;5064687;28;20479;-76
2022/01/28 10:55:36;;;;;;;6.07;2.40;;;4.40;73.80;;;2.96;74.03;99370.31;5063874;28;20472;-76
2022/01/28 10:58:06;;;;;;;4.73;2.17;;;4.40;73.80;;;2.94;73.11;99366.91;5074601;28;20488;-77
2022/01/28 11:00:36;;;;;;;5.70;1.97;;;4.40;73.60;;;2.87;73.36;99369.28;5074341;28;20441;-74
2022/01/28 11:03:06;;;;;;;6.47;2.07;;;4.40;73.30;;;2.89;73.38;99382.50;5074029;28;20438;-77
2022/01/28 11:05:36;;;;;;;6.93;2.33;;;4.40;73.30;;;2.91;73.43;99377.88;5073769;28;20528;-76
2022/01/28 11:08:07;;;;;;;4.33;2.20;;;4.40;73.40;;;2.93;71.94;99367.91;5074890;28;20529;-77
2022/01/28 11:10:36;;;;;;;8.37;2.03;;;4.50;72.60;;;2.93;71.85;99382.09;5056514;28;20445;-77
2022/01/28 11:13:03;;;;;;;7.20;3.27;;;4.40;72.00;;;3.11;72.43;99393.03;5073988;28;20524;-76
2022/01/28 11:15:31;;;;;;;5.80;2.40;;;4.50;72.60;;;3.29;72.82;99378.19;5056492;28;20496;-78
2022/01/28 11:18:01;;;;;;;6.80;2.33;;;4.70;73.30;;;3.32;72.42;99381.44;5073986;28;20475;-76
2022/01/28 11:20:35;;;;;;;5.23;2.40;;;4.80;72.90;;;3.24;72.60;99382.09;5073829;28;20437;-77
2022/01/28 11:23:19;;;;;;;4.47;2.37;;;4.70;72.90;;;3.16;71.47;99384.59;5056022;28;20851;-77
2022/01/28 11:26:01;;;;;;;4.40;2.10;;;4.70;72.40;;;2.94;72.91;99380.28;5074235;28;20445;-80
2022/01/28 11:28:42;;;;;;;6.03;2.13;;;4.50;72.60;;;2.91;73.14;99370.72;5079136;28;20441;-77
2022/01/28 11:31:09;;;;;;;7.30;2.43;;;4.40;72.90;;;3.05;73.28;99384.69;5088582;28;20432;-79
2022/01/28 11:33:47;;;;;;;5.93;2.23;;;4.50;73.10;;;3.06;72.97;99387.22;5077771;28;20510;-76
2022/01/28 11:36:15;;;;;;;7.20;3.17;;;4.50;72.70;;;3.20;72.33;99395.84;5090395;28;20452;-78
2022/01/28 11:38:46;;;;;;;10.60;2.70;;;4.60;72.70;;;2.82;72.47;99308.28;5079282;28;20485;-76